Terminal Aerodrome Forecast
Issued by NWS

Home | Current Version | Previous Version | Text Only | Print | Product List | Glossary On
Versions: 1 2 3 4 5 6 7 8 9 10 11 12 13 14 15
000
FTUS43 KILX 240500
TAFBMI
TAF
KBMI 240530Z 2406/2506 21008KT P6SM VCSH SCT025 OVC040
      TEMPO 2406/2408 -SHRA BKN025
     FM240800 VRB03KT 4SM BR SCT008 BKN025
     FM241600 22009KT P6SM SCT025
     FM250200 21006KT P6SM BKN025=

USA.gov is the U.S. government's official web portal to all federal, state and local government web resources and services.